Time;durP1;ratioP1;P1;durP2;ratioP2;P2;SDS_P1;SDS_P2;PMS_P1;PMS_P2;Temp;Humidity;BMP_temperature;BMP_pressure;BME280_temperature;BME280_humidity;BME280_pressure;Samples;Min_cycle;Max_cycle;Signal;HPM_P1;HPM_P2
2022/06/02 04:01:26;;;;;;;3.38;2.95;;;9.40;99.90;;;;;;5656910;22;20050;-72
2022/06/02 04:04:23;;;;;;;5.75;2.92;;;9.40;99.90;;;;;;5053538;28;20073;-70
2022/06/02 04:07:08;;;;;;;4.65;3.00;;;9.40;99.90;;;;;;5053874;28;20044;-70
2022/06/02 04:09:55;;;;;;;2.65;2.45;;;9.40;99.90;;;;;;5054324;28;20123;-71
2022/06/02 04:15:41;;;;;;;3.47;3.17;;;9.40;99.90;;;;;;5052549;28;20033;-70
2022/06/02 04:18:28;;;;;;;3.20;2.85;;;9.40;99.90;;;;;;5054457;28;20085;-72
2022/06/02 04:21:10;;;;;;;4.65;3.65;;;9.60;99.90;;;;;;5053967;28;20048;-72
2022/06/02 04:24:04;;;;;;;5.07;3.38;;;9.80;99.90;;;;;;5054035;28;20036;-72
2022/06/02 04:27:08;;;;;;;4.75;3.25;;;10.00;99.90;;;;;;5054277;28;20569;-72
2022/06/02 04:29:48;;;;;;;4.13;3.28;;;10.20;99.90;;;;;;5052152;28;20406;-71
2022/06/02 04:32:35;;;;;;;5.05;3.33;;;10.30;99.90;;;;;;5053917;28;20061;-70
2022/06/02 04:35:23;;;;;;;4.05;3.42;;;10.50;99.90;;;;;;5053598;28;20466;-70
2022/06/02 04:37:51;;;;;;;3.40;3.10;;;10.70;99.90;;;;;;5053552;28;20111;-70
2022/06/02 04:40:45;;;;;;;4.47;3.30;;;10.90;99.90;;;;;;5053601;28;20037;-70
2022/06/02 04:43:24;;;;;;;4.45;3.03;;;11.10;99.90;;;;;;5056844;28;20160;-70
2022/06/02 04:46:01;;;;;;;3.85;3.03;;;11.30;99.90;;;;;;5056852;28;20033;-70
2022/06/02 04:48:38;;;;;;;3.20;2.90;;;11.50;99.90;;;;;;5056958;28;20036;-70
2022/06/02 04:51:20;;;;;;;3.22;2.92;;;11.70;99.90;;;;;;5056650;28;20045;-72
2022/06/02 04:54:24;;;;;;;4.72;2.97;;;11.70;99.90;;;;;;5056497;28;20033;-70
2022/06/02 04:57:04;;;;;;;4.82;2.80;;;11.80;99.90;;;;;;5056695;28;20477;-70
2022/06/02 04:59:44;;;;;;;4.00;2.90;;;11.80;99.90;;;;;;5056970;28;20037;-70
2022/06/02 05:02:25;;;;;;;4.22;3.17;;;11.90;99.90;;;;;;5056518;28;20033;-73
2022/06/02 05:04:55;;;;;;;3.90;2.88;;;11.90;99.90;;;;;;5056659;28;20036;-70
2022/06/02 05:07:55;;;;;;;4.00;2.90;;;12.00;99.90;;;;;;5054943;28;20108;-70
2022/06/02 05:10:41;;;;;;;3.45;3.00;;;12.10;99.90;;;;;;5050146;28;20087;-70
2022/06/02 05:13:31;;;;;;;3.83;2.90;;;12.10;99.90;;;;;;5044495;28;20049;-70
2022/06/02 05:16:05;;;;;;;4.43;2.92;;;12.10;99.90;;;;;;5055479;28;20037;-74
2022/06/02 05:18:55;;;;;;;4.43;3.17;;;12.10;99.90;;;;;;5055464;28;20556;-71
2022/06/02 05:21:50;;;;;;;3.92;2.67;;;12.00;99.90;;;;;;5054266;28;20068;-72
2022/06/02 05:24:33;;;;;;;4.45;2.67;;;12.00;99.90;;;;;;5037850;28;20133;-74
2022/06/02 05:27:20;;;;;;;4.15;2.70;;;12.00;99.90;;;;;;5055194;28;20029;-70
2022/06/02 05:30:01;;;;;;;3.30;2.70;;;12.00;99.90;;;;;;5055444;28;20030;-72
2022/06/02 05:32:50;;;;;;;2.80;2.33;;;12.00;99.90;;;;;;5056358;28;20037;-71
2022/06/02 05:35:49;;;;;;;2.42;2.22;;;12.10;99.90;;;;;;5056020;28;20120;-70
2022/06/02 05:38:20;;;;;;;4.00;2.20;;;12.20;99.90;;;;;;5055347;28;20041;-71
2022/06/02 05:40:51;;;;;;;2.50;2.30;;;12.30;99.90;;;;;;5055753;28;20034;-71
2022/06/02 05:43:46;;;;;;;3.55;2.50;;;12.40;99.90;;;;;;5056104;28;20048;-71
2022/06/02 05:46:40;;;;;;;4.03;2.60;;;12.50;99.90;;;;;;5055477;28;20034;-71
2022/06/02 05:49:28;;;;;;;3.75;2.40;;;12.70;99.90;;;;;;5055164;28;20153;-71
2022/06/02 05:52:07;;;;;;;2.75;2.25;;;12.80;99.90;;;;;;5035178;28;20037;-71
2022/06/02 05:55:06;;;;;;;4.00;2.53;;;13.00;99.90;;;;;;5035650;28;20041;-71
2022/06/02 05:57:41;;;;;;;4.63;2.10;;;13.10;99.90;;;;;;5051883;28;20410;-71
2022/06/02 06:00:17;;;;;;;2.72;2.15;;;13.30;99.90;;;;;;5055007;28;20552;-72
2022/06/02 06:03:23;;;;;;;2.50;2.00;;;13.40;99.90;;;;;;5055564;28;20176;-72
2022/06/02 06:06:03;;;;;;;3.83;2.25;;;13.50;99.90;;;;;;5044194;28;20524;-76
2022/06/02 06:08:43;;;;;;;2.92;2.65;;;13.60;99.90;;;;;;5055870;28;20485;-72
2022/06/02 06:11:30;;;;;;;4.28;2.50;;;13.70;99.90;;;;;;5053794;28;20108;-71
2022/06/02 06:14:18;;;;;;;4.45;2.42;;;13.70;99.90;;;;;;5054910;28;20111;-71
2022/06/02 06:17:04;;;;;;;5.28;2.63;;;13.80;99.90;;;;;;5042880;28;20123;-71
2022/06/02 06:20:25;;;;;;;4.15;2.20;;;13.80;99.90;;;;;;5055070;28;20049;-71
2022/06/02 06:22:56;;;;;;;3.10;2.38;;;14.00;99.90;;;;;;5052457;28;20042;-71
2022/06/02 06:25:54;;;;;;;6.55;2.63;;;14.20;99.90;;;;;;5054523;28;20053;-74
2022/06/02 06:28:22;;;;;;;3.10;2.22;;;14.20;99.90;;;;;;5035361;28;20034;-74
2022/06/02 06:31:00;;;;;;;5.40;2.10;;;14.30;99.90;;;;;;5035289;28;20034;-72
2022/06/02 06:33:32;;;;;;;4.55;2.55;;;14.30;99.60;;;;;;5051294;28;20072;-72
2022/06/02 06:35:58;;;;;;;3.25;2.05;;;14.40;99.70;;;;;;5054549;28;20581;-72
2022/06/02 06:38:45;;;;;;;2.88;2.00;;;14.40;99.00;;;;;;5055254;28;20056;-72
2022/06/02 06:41:35;;;;;;;4.35;2.25;;;14.50;99.40;;;;;;5055128;28;20462;-72
2022/06/02 06:44:31;;;;;;;4.45;2.08;;;14.50;98.40;;;;;;5054975;28;20589;-72
2022/06/02 06:47:14;;;;;;;3.33;2.20;;;14.60;98.50;;;;;;5050515;28;20447;-72
2022/06/02 06:50:01;;;;;;;3.28;2.15;;;14.60;98.10;;;;;;5054922;28;20041;-72
2022/06/02 06:52:26;;;;;;;3.63;2.10;;;14.70;98.20;;;;;;5054661;28;20435;-72
2022/06/02 06:55:28;;;;;;;2.85;2.30;;;14.80;99.20;;;;;;5054188;28;20042;-72
2022/06/02 06:58:03;;;;;;;2.30;2.10;;;15.00;97.60;;;;;;5051676;28;20053;-72
2022/06/02 07:00:38;;;;;;;4.18;1.92;;;15.10;97.90;;;;;;5054513;28;20044;-72
2022/06/02 07:03:19;;;;;;;5.13;2.55;;;15.30;97.00;;;;;;5053128;28;20502;-72
2022/06/02 07:05:51;;;;;;;4.63;2.20;;;15.40;95.70;;;;;;5053872;28;20095;-72
2022/06/02 07:08:41;;;;;;;4.72;2.65;;;15.80;95.50;;;;;;5054673;28;20407;-72
2022/06/02 07:14:39;;;;;;;2.60;2.22;;;16.10;94.00;;;;;;5054714;28;20507;-72
2022/06/02 07:17:14;;;;;;;3.05;2.10;;;16.40;93.70;;;;;;5054333;28;20569;-72
2022/06/02 07:19:54;;;;;;;2.80;1.90;;;16.50;93.60;;;;;;5054751;28;20122;-72
2022/06/02 07:22:38;;;;;;;4.55;2.45;;;16.60;93.10;;;;;;5053426;28;20503;-72
2022/06/02 07:25:22;;;;;;;4.53;2.25;;;16.60;92.00;;;;;;5053839;28;20025;-72
2022/06/02 07:28:10;;;;;;;3.35;2.13;;;16.80;92.90;;;;;;5054349;28;20034;-72
2022/06/02 07:31:07;;;;;;;3.67;2.03;;;16.90;92.80;;;;;;5051278;28;20133;-73
2022/06/02 07:33:43;;;;;;;2.60;2.00;;;17.30;91.90;;;;;;5031350;28;20053;-73
2022/06/02 07:36:16;;;;;;;1.85;1.75;;;17.50;90.40;;;;;;5053752;28;20044;-73
2022/06/02 07:39:09;;;;;;;8.48;2.05;;;17.80;88.80;;;;;;5053840;28;20045;-73
2022/06/02 07:42:01;;;;;;;1.90;1.50;;;18.20;88.50;;;;;;5054141;28;20041;-72
2022/06/02 07:44:52;;;;;;;4.20;1.67;;;18.50;85.90;;;;;;5053955;28;20136;-73
2022/06/02 07:47:45;;;;;;;2.65;1.52;;;18.70;86.00;;;;;;5053247;28;20437;-73
2022/06/02 07:50:26;;;;;;;3.47;2.08;;;18.90;82.20;;;;;;5053973;28;20075;-73
2022/06/02 07:53:11;;;;;;;3.90;1.98;;;19.10;83.30;;;;;;5054465;28;20489;-73
2022/06/02 07:55:54;;;;;;;4.40;2.80;;;19.10;82.60;;;;;;5054117;28;20517;-73
2022/06/02 07:58:26;;;;;;;4.72;1.60;;;19.20;78.90;;;;;;5042708;28;20049;-73
2022/06/02 08:00:57;;;;;;;4.05;1.70;;;19.10;78.90;;;;;;5060043;28;20037;-73
2022/06/02 08:03:52;;;;;;;2.25;1.70;;;19.20;79.20;;;;;;5052366;28;20065;-73
2022/06/02 08:06:37;;;;;;;2.47;1.70;;;19.30;80.20;;;;;;5032395;28;20040;-73
2022/06/02 08:09:19;;;;;;;3.50;1.90;;;19.50;79.60;;;;;;5034529;28;20042;-73
2022/06/02 08:12:00;;;;;;;3.17;1.30;;;19.60;78.90;;;;;;5045008;28;20088;-73
2022/06/02 08:14:32;;;;;;;3.33;1.90;;;19.90;76.70;;;;;;5052708;28;20061;-73
2022/06/02 08:17:29;;;;;;;1.83;1.40;;;20.00;75.20;;;;;;5055280;28;20499;-73
2022/06/02 08:20:13;;;;;;;3.03;1.50;;;19.80;74.10;;;;;;5055925;28;20081;-73
2022/06/02 08:22:45;;;;;;;2.03;1.10;;;20.00;75.10;;;;;;5056478;28;20129;-73
2022/06/02 08:25:13;;;;;;;1.48;1.38;;;20.10;75.80;;;;;;5056061;28;20072;-73
2022/06/02 08:28:04;;;;;;;1.77;1.40;;;20.20;76.30;;;;;;5056196;28;20044;-73
2022/06/02 08:30:49;;;;;;;1.42;1.33;;;20.00;75.20;;;;;;5056099;28;20499;-73
2022/06/02 08:33:23;;;;;;;1.67;1.35;;;19.90;73.00;;;;;;5055482;28;20493;-72
2022/06/02 08:36:00;;;;;;;1.50;1.25;;;20.00;73.60;;;;;;5056489;28;20033;-74
2022/06/02 08:38:50;;;;;;;5.80;1.65;;;20.00;74.60;;;;;;5056399;28;20068;-73
2022/06/02 08:41:55;;;;;;;2.03;1.42;;;19.90;76.10;;;;;;5056144;28;20037;-73
2022/06/02 08:44:24;;;;;;;2.38;1.25;;;20.50;74.20;;;;;;5045379;28;20052;-73
2022/06/02 08:47:19;;;;;;;5.25;1.50;;;20.90;71.60;;;;;;5056504;28;20033;-73
2022/06/02 08:50:20;;;;;;;3.72;1.27;;;21.00;71.80;;;;;;5056619;28;20518;-73
2022/06/02 08:53:14;;;;;;;2.15;1.52;;;21.30;71.00;;;;;;5056100;28;20775;-73
2022/06/02 08:55:59;;;;;;;1.67;1.38;;;21.50;71.10;;;;;;5055712;28;20026;-73
2022/06/02 08:59:02;;;;;;;1.35;1.13;;;21.60;67.20;;;;;;5074169;28;20041;-73
2022/06/02 09:01:42;;;;;;;2.88;1.33;;;21.60;67.80;;;;;;5076319;28;20120;-73
2022/06/02 09:04:28;;;;;;;1.70;1.20;;;21.90;67.10;;;;;;5036431;28;20046;-73
2022/06/02 09:07:00;;;;;;;3.88;1.35;;;21.70;66.90;;;;;;5044491;28;20040;-76
2022/06/02 09:09:40;;;;;;;1.42;1.02;;;21.80;68.40;;;;;;5044857;28;20042;-73
2022/06/02 09:12:26;;;;;;;3.15;0.90;;;21.70;66.60;;;;;;5054874;28;20033;-73
2022/06/02 09:15:34;;;;;;;2.78;1.13;;;21.90;67.70;;;;;;5056346;28;20041;-73
2022/06/02 09:18:17;;;;;;;4.60;1.27;;;22.10;65.20;;;;;;5057490;28;20069;-73
2022/06/02 09:21:06;;;;;;;2.60;1.13;;;22.10;66.10;;;;;;5068478;28;20049;-74
2022/06/02 09:23:34;;;;;;;2.55;1.10;;;22.20;62.80;;;;;;5055633;28;20045;-72
2022/06/02 09:26:27;;;;;;;1.67;1.00;;;22.20;63.90;;;;;;5055580;28;20053;-72
2022/06/02 09:29:20;;;;;;;1.92;1.27;;;22.60;64.70;;;;;;5037269;28;20030;-72
2022/06/02 09:31:55;;;;;;;5.63;2.92;;;22.40;63.60;;;;;;5054614;28;20042;-73
2022/06/02 09:34:41;;;;;;;1.52;1.10;;;22.30;63.10;;;;;;5055332;28;20541;-72
2022/06/02 09:37:31;;;;;;;3.95;1.25;;;22.50;66.40;;;;;;5054892;28;20402;-72
2022/06/02 09:40:17;;;;;;;1.83;1.27;;;22.40;63.00;;;;;;5055334;28;20104;-73
2022/06/02 09:43:11;;;;;;;1.20;1.10;;;22.40;61.90;;;;;;5053328;28;20034;-73
2022/06/02 09:45:49;;;;;;;3.05;2.22;;;22.40;63.50;;;;;;5053840;28;20487;-73
2022/06/02 09:48:37;;;;;;;3.30;1.00;;;22.40;61.10;;;;;;5055626;28;20053;-72
2022/06/02 09:51:02;;;;;;;2.58;1.30;;;22.40;63.90;;;;;;5075289;28;20470;-73
2022/06/02 09:53:55;;;;;;;2.58;1.20;;;22.60;62.80;;;;;;5060475;28;20038;-73
2022/06/02 09:56:35;;;;;;;2.00;1.02;;;22.90;64.60;;;;;;5055879;28;20033;-73
2022/06/02 09:59:42;;;;;;;1.50;1.20;;;22.80;60.40;;;;;;5037874;28;20491;-73
2022/06/02 10:02:29;;;;;;;1.27;1.05;;;22.80;60.70;;;;;;5053021;28;20053;-72
2022/06/02 10:05:07;;;;;;;2.10;1.17;;;22.80;64.00;;;;;;5055066;28;20103;-72
2022/06/02 10:08:11;;;;;;;3.90;1.20;;;23.60;60.10;;;;;;5055328;28;20034;-73
2022/06/02 10:10:54;;;;;;;2.13;1.38;;;23.50;60.30;;;;;;5053041;28;20511;-73
2022/06/02 10:13:55;;;;;;;4.38;1.45;;;23.90;63.00;;;;;;5033544;28;20120;-73
2022/06/02 10:16:45;;;;;;;2.20;1.00;;;24.10;60.10;;;;;;5035596;28;20033;-73
2022/06/02 10:19:46;;;;;;;3.47;1.13;;;24.30;58.70;;;;;;5035443;28;20034;-73
2022/06/02 10:22:23;;;;;;;1.67;1.30;;;24.30;59.50;;;;;;5065796;28;20473;-73
2022/06/02 10:24:58;;;;;;;1.92;1.20;;;24.30;60.40;;;;;;5075580;28;20044;-73
2022/06/02 10:27:32;;;;;;;1.95;1.20;;;24.00;59.90;;;;;;5063348;28;20030;-76
2022/06/02 10:30:44;;;;;;;1.83;1.05;;;24.40;58.60;;;;;;5060735;28;20119;-74
2022/06/02 10:33:25;;;;;;;3.10;1.35;;;24.50;58.40;;;;;;5055811;28;20818;-77
2022/06/02 10:35:54;;;;;;;3.72;1.23;;;24.70;58.80;;;;;;5055233;28;20033;-73
2022/06/02 10:38:26;;;;;;;1.17;1.00;;;24.70;57.50;;;;;;5054724;28;20072;-75
2022/06/02 10:41:03;;;;;;;1.63;1.10;;;25.00;56.80;;;;;;5054498;28;20064;-73
2022/06/02 10:43:56;;;;;;;2.45;1.00;;;25.00;60.60;;;;;;5054882;28;20041;-73
2022/06/02 10:46:55;;;;;;;1.75;1.23;;;25.00;58.00;;;;;;5052800;28;20530;-74
2022/06/02 10:49:30;;;;;;;2.58;2.05;;;24.90;56.30;;;;;;5054321;28;20041;-73
2022/06/02 10:52:14;;;;;;;2.78;1.35;;;25.10;60.90;;;;;;5054825;28;20087;-73
2022/06/02 10:55:17;;;;;;;3.10;1.20;;;24.70;59.20;;;;;;5054719;28;20045;-72
2022/06/02 10:58:04;;;;;;;3.25;1.30;;;24.80;58.20;;;;;;5054359;28;20108;-73
2022/06/02 11:00:48;;;;;;;1.20;1.10;;;25.10;59.00;;;;;;5054863;28;20037;-75
2022/06/02 11:03:23;;;;;;;1.92;1.20;;;25.50;57.60;;;;;;5055246;28;20041;-76
2022/06/02 11:06:27;;;;;;;2.33;1.30;;;25.70;56.30;;;;;;5056112;28;20029;-74
2022/06/02 11:09:10;;;;;;;2.38;1.30;;;25.60;55.10;;;;;;5043033;28;20114;-77
2022/06/02 11:11:41;;;;;;;2.45;1.13;;;25.00;58.70;;;;;;5054386;28;20521;-73
2022/06/02 11:14:38;;;;;;;2.88;1.00;;;25.00;59.70;;;;;;5054419;28;20116;-74
2022/06/02 11:17:33;;;;;;;3.05;1.10;;;25.60;58.10;;;;;;5054217;28;20044;-73
2022/06/02 11:20:14;;;;;;;1.85;0.90;;;25.90;57.10;;;;;;5060214;28;20104;-73
2022/06/02 11:22:48;;;;;;;1.85;1.25;;;26.30;56.40;;;;;;5054762;28;20079;-73
2022/06/02 11:25:51;;;;;;;1.20;1.10;;;26.40;56.30;;;;;;5054403;28;20091;-73
2022/06/02 11:28:44;;;;;;;1.38;1.00;;;26.40;54.50;;;;;;5054166;28;20048;-73
2022/06/02 11:31:44;;;;;;;3.15;1.33;;;26.30;56.20;;;;;;5054142;28;20037;-74
2022/06/02 11:34:40;;;;;;;7.20;1.35;;;25.90;58.20;;;;;;5054244;28;20040;-73
2022/06/02 11:37:14;;;;;;;2.60;1.30;;;26.00;55.50;;;;;;5054436;28;20037;-74
2022/06/02 11:40:02;;;;;;;2.08;1.23;;;25.80;57.60;;;;;;5052845;28;20136;-74
2022/06/02 11:42:45;;;;;;;1.40;1.02;;;25.60;57.60;;;;;;5054021;28;20033;-73
2022/06/02 11:45:22;;;;;;;2.85;1.20;;;26.00;55.60;;;;;;5054050;28;20046;-73
2022/06/02 11:48:24;;;;;;;1.50;1.27;;;26.10;56.50;;;;;;5053297;28;20033;-73
2022/06/02 11:51:06;;;;;;;1.67;1.13;;;26.00;53.90;;;;;;5054247;28;20042;-73
2022/06/02 11:53:47;;;;;;;3.25;1.25;;;26.20;56.40;;;;;;5051885;28;20060;-73
2022/06/02 11:56:18;;;;;;;3.10;1.20;;;26.10;53.70;;;;;;5048774;28;20056;-73
2022/06/02 11:58:55;;;;;;;2.97;1.20;;;26.60;56.30;;;;;;5076274;28;20099;-73
2022/06/02 12:01:41;;;;;;;2.15;1.17;;;26.50;55.20;;;;;;5063385;28;20491;-73
2022/06/02 12:04:54;;;;;;;2.72;1.50;;;27.10;53.80;;;;;;5044396;28;20459;-73
2022/06/02 12:07:38;;;;;;;3.15;1.23;;;27.40;52.20;;;;;;5038311;28;20545;-73
2022/06/02 12:10:13;;;;;;;1.20;1.10;;;27.30;55.30;;;;;;5060462;28;20044;-73
2022/06/02 12:12:41;;;;;;;4.15;1.20;;;27.10;55.50;;;;;;5059019;28;20517;-73
2022/06/02 12:15:23;;;;;;;3.05;1.20;;;27.10;55.00;;;;;;5046268;28;20040;-73
2022/06/02 12:18:13;;;;;;;2.03;1.10;;;27.00;55.30;;;;;;5056938;28;20380;-73
2022/06/02 12:21:03;;;;;;;1.27;1.10;;;26.60;57.00;;;;;;5062430;28;20095;-73
2022/06/02 12:23:35;;;;;;;2.58;1.20;;;27.10;53.20;;;;;;5056504;28;20044;-73
2022/06/02 12:26:21;;;;;;;2.20;0.98;;;27.60;52.90;;;;;;5049863;28;20568;-74
2022/06/02 12:29:03;;;;;;;1.85;1.00;;;27.50;54.50;;;;;;5055836;28;20040;-74
2022/06/02 12:31:44;;;;;;;2.53;1.13;;;27.80;52.70;;;;;;5054023;28;20040;-73
2022/06/02 12:34:31;;;;;;;1.85;1.02;;;27.90;54.90;;;;;;5053262;28;20091;-74
2022/06/02 12:37:32;;;;;;;2.45;1.20;;;27.60;54.60;;;;;;5052690;28;20041;-74
2022/06/02 12:40:17;;;;;;;1.15;1.00;;;27.40;54.20;;;;;;5049423;28;20069;-74
2022/06/02 12:42:58;;;;;;;2.17;1.13;;;26.90;56.00;;;;;;5056049;28;20618;-74
2022/06/02 12:45:48;;;;;;;1.95;1.20;;;27.00;55.20;;;;;;5064681;28;20491;-74
2022/06/02 12:48:25;;;;;;;2.47;1.20;;;26.70;53.50;;;;;;5064793;28;20120;-74
2022/06/02 12:51:04;;;;;;;2.67;1.15;;;26.80;53.60;;;;;;5060047;28;20099;-74
2022/06/02 12:53:41;;;;;;;1.25;1.15;;;26.40;54.80;;;;;;5065558;28;20499;-74
2022/06/02 12:57:01;;;;;;;1.67;1.23;;;26.20;54.40;;;;;;5056407;28;20033;-73
2022/06/02 12:59:29;;;;;;;1.90;1.10;;;26.30;57.20;;;;;;5001829;28;20134;-73
2022/06/02 13:02:39;;;;;;;4.03;1.27;;;26.40;54.30;;;;;;5032577;28;20049;-74
2022/06/02 13:05:28;;;;;;;2.13;1.00;;;26.60;57.60;;;;;;5016634;28;20124;-73
2022/06/02 13:07:58;;;;;;;2.00;0.95;;;26.60;55.00;;;;;;5055990;28;20045;-74
2022/06/02 13:10:48;;;;;;;1.33;1.10;;;26.30;57.10;;;;;;5056296;28;20108;-74
2022/06/02 13:14:02;;;;;;;2.40;1.30;;;26.00;54.50;;;;;;5056460;28;20120;-74
2022/06/02 13:16:49;;;;;;;3.17;1.15;;;26.00;58.70;;;;;;5056599;28;20030;-75
2022/06/02 13:19:34;;;;;;;2.85;1.10;;;26.20;55.30;;;;;;5056538;28;20046;-74
2022/06/02 13:22:06;;;;;;;4.40;1.08;;;26.60;56.80;;;;;;5023331;28;20049;-76
2022/06/02 13:24:54;;;;;;;2.70;1.00;;;26.50;54.00;;;;;;5056417;28;20061;-77
2022/06/02 13:27:45;;;;;;;1.85;1.10;;;26.50;57.30;;;;;;5056620;28;20025;-74
2022/06/02 13:30:48;;;;;;;1.70;1.30;;;26.60;55.70;;;;;;5058815;28;20080;-76
2022/06/02 13:33:34;;;;;;;3.40;1.05;;;27.20;56.40;;;;;;5064180;28;20487;-76
2022/06/02 13:36:30;;;;;;;4.60;1.20;;;28.30;56.30;;;;;;5060466;28;20049;-76
2022/06/02 13:39:06;;;;;;;3.80;1.25;;;29.60;54.30;;;;;;5049080;28;20529;-76
2022/06/02 13:42:02;;;;;;;1.73;1.08;;;30.80;50.90;;;;;;5055896;28;20041;-77
2022/06/02 13:45:01;;;;;;;1.42;1.08;;;30.80;49.20;;;;;;5055554;28;20045;-76
2022/06/02 13:47:48;;;;;;;2.08;1.30;;;30.10;50.40;;;;;;5053752;28;20169;-76
2022/06/02 13:50:44;;;;;;;1.58;1.00;;;29.90;49.20;;;;;;5056129;28;20029;-76
2022/06/02 13:59:59;;;;;;;2.55;1.10;;;31.20;48.60;;;;;;5053375;28;20045;-74
2022/06/02 14:02:33;;;;;;;2.92;1.10;;;31.00;49.50;;;;;;5055191;28;20108;-75
2022/06/02 14:05:05;;;;;;;1.95;1.20;;;30.20;48.40;;;;;;5055357;28;20092;-75
2022/06/02 14:07:52;;;;;;;1.15;1.05;;;30.40;48.70;;;;;;5054976;28;20037;-75
2022/06/02 14:10:26;;;;;;;1.92;1.10;;;30.90;49.60;;;;;;5055622;28;20108;-75
2022/06/02 14:13:13;;;;;;;2.33;1.02;;;30.30;48.40;;;;;;5052612;28;20038;-75
2022/06/02 14:16:00;;;;;;;1.70;1.15;;;29.90;49.30;;;;;;5053608;28;20081;-75
2022/06/02 14:18:57;;;;;;;1.30;0.98;;;30.40;50.30;;;;;;5055597;28;20042;-78
2022/06/02 14:21:41;;;;;;;1.00;0.98;;;30.60;51.20;;;;;;5042190;28;20038;-74
2022/06/02 14:24:12;;;;;;;2.17;1.00;;;29.30;51.60;;;;;;5054162;28;20477;-74
2022/06/02 14:26:38;;;;;;;2.15;1.10;;;29.80;53.20;;;;;;5053626;28;20046;-74
2022/06/02 14:29:24;;;;;;;2.85;1.20;;;29.80;49.90;;;;;;5056041;28;20054;-74
2022/06/02 14:32:10;;;;;;;2.22;1.13;;;29.30;51.80;;;;;;5075510;28;20025;-74
2022/06/02 14:34:45;;;;;;;3.40;1.00;;;28.80;51.30;;;;;;5065924;28;20044;-74
2022/06/02 14:37:27;;;;;;;2.38;1.10;;;29.70;53.20;;;;;;5054863;28;20526;-74
2022/06/02 14:40:11;;;;;;;1.58;1.33;;;30.40;50.80;;;;;;5055413;28;20037;-74
2022/06/02 14:45:42;;;;;;;1.30;1.20;;;30.80;52.30;;;;;;5052183;28;20041;-75
2022/06/02 14:48:16;;;;;;;3.00;1.30;;;30.00;50.90;;;;;;5054853;28;20073;-74
2022/06/02 14:51:10;;;;;;;4.38;1.35;;;30.60;51.00;;;;;;5053277;28;20532;-74
2022/06/02 14:53:53;;;;;;;2.58;1.30;;;31.00;48.70;;;;;;5048136;28;20087;-74
2022/06/02 14:56:34;;;;;;;2.50;1.20;;;33.40;46.00;;;;;;5054851;28;20104;-74
2022/06/02 14:59:06;;;;;;;3.50;1.33;;;33.10;46.70;;;;;;5054432;28;20041;-74
2022/06/02 15:01:42;;;;;;;25.55;3.75;;;32.00;46.70;;;;;;5052653;28;20043;-73
2022/06/02 15:04:26;;;;;;;58.90;6.03;;;30.70;47.90;;;;;;5053645;28;20037;-73
2022/06/02 15:07:03;;;;;;;75.70;16.45;;;29.60;51.50;;;;;;5051357;28;20030;-73
2022/06/02 15:09:58;;;;;;;2.22;1.30;;;29.00;53.10;;;;;;5052849;28;20042;-73
2022/06/02 15:12:42;;;;;;;1.90;1.20;;;28.90;51.70;;;;;;5033180;28;20046;-73
2022/06/02 15:15:37;;;;;;;2.60;1.30;;;29.70;52.10;;;;;;5046727;28;20049;-74
2022/06/02 15:18:37;;;;;;;2.85;1.20;;;31.30;48.60;;;;;;5038227;28;20037;-72
2022/06/02 15:21:08;;;;;;;1.83;1.25;;;31.80;49.70;;;;;;5033678;28;20042;-73
2022/06/02 15:24:00;;;;;;;2.58;1.30;;;30.40;50.10;;;;;;5034293;28;20045;-73
2022/06/02 15:26:50;;;;;;;2.22;1.52;;;30.10;49.80;;;;;;5038279;28;20037;-73
2022/06/02 15:29:37;;;;;;;1.98;1.20;;;29.20;50.80;;;;;;5054340;28;20050;-73
2022/06/02 15:32:47;;;;;;;4.00;1.77;;;29.70;51.00;;;;;;5053477;28;20048;-73
2022/06/02 15:35:36;;;;;;;2.45;1.17;;;32.20;49.10;;;;;;5053753;28;20084;-73
2022/06/02 15:38:35;;;;;;;1.25;0.98;;;32.90;48.10;;;;;;5053885;28;20037;-73
2022/06/02 15:41:20;;;;;;;4.07;1.45;;;34.00;46.10;;;;;;5053811;28;20103;-73
2022/06/02 15:44:17;;;;;;;1.30;1.20;;;34.70;42.40;;;;;;5053928;28;20037;-73
2022/06/02 15:47:12;;;;;;;4.05;1.80;;;34.00;42.90;;;;;;5053773;28;20092;-73
2022/06/02 15:50:07;;;;;;;3.40;1.40;;;32.80;45.70;;;;;;5054157;28;20116;-73
2022/06/02 15:53:11;;;;;;;2.25;1.27;;;33.20;45.10;;;;;;5053968;28;20033;-73
2022/06/02 15:55:59;;;;;;;1.38;1.20;;;33.30;43.50;;;;;;5053783;28;20031;-73
2022/06/02 15:58:24;;;;;;;2.78;1.38;;;31.90;45.70;;;;;;5054218;28;20057;-73
2022/06/02 16:01:27;;;;;;;2.13;1.42;;;31.10;46.60;;;;;;5053416;28;20518;-73
2022/06/02 16:03:55;;;;;;;3.45;1.50;;;31.90;46.30;;;;;;5053682;28;20096;-75
2022/06/02 16:06:58;;;;;;;6.18;1.30;;;33.30;46.40;;;;;;5053436;28;20049;-73
2022/06/02 16:12:38;;;;;;;2.75;1.23;;;32.60;44.10;;;;;;5054629;28;20096;-75
2022/06/02 16:15:07;;;;;;;2.08;1.48;;;32.00;46.10;;;;;;5056415;28;20029;-78
2022/06/02 16:17:48;;;;;;;1.92;1.50;;;31.90;48.00;;;;;;5055171;28;20037;-76
2022/06/02 16:20:51;;;;;;;4.88;1.88;;;32.60;44.70;;;;;;5055454;28;20038;-74
2022/06/02 16:23:33;;;;;;;3.13;2.13;;;33.80;44.10;;;;;;5045184;28;20038;-77
2022/06/02 16:26:20;;;;;;;6.28;3.40;;;32.10;45.80;;;;;;5053323;28;20542;-76
2022/06/02 16:29:22;;;;;;;2.88;1.98;;;31.40;46.90;;;;;;5054970;28;20593;-78
2022/06/02 16:32:09;;;;;;;6.43;3.13;;;31.50;46.30;;;;;;5034504;28;20036;-74
2022/06/02 16:35:05;;;;;;;4.00;1.60;;;30.80;47.40;;;;;;5040215;28;20037;-75
2022/06/02 16:37:58;;;;;;;1.50;1.30;;;29.80;49.40;;;;;;5062034;28;20034;-75
2022/06/02 16:41:09;;;;;;;4.43;1.40;;;29.40;50.00;;;;;;5056383;28;20488;-75
2022/06/02 16:43:58;;;;;;;2.85;1.33;;;28.30;52.50;;;;;;5041855;28;20042;-75
2022/06/02 16:46:41;;;;;;;7.45;5.43;;;28.20;52.50;;;;;;5060701;28;20037;-75
2022/06/02 16:49:30;;;;;;;5.50;3.17;;;27.70;52.70;;;;;;5057802;28;20034;-74
2022/06/02 16:52:21;;;;;;;4.43;3.42;;;27.30;54.30;;;;;;5057465;28;20034;-72
2022/06/02 16:54:55;;;;;;;3.58;3.10;;;27.00;54.40;;;;;;5053887;28;20180;-72
2022/06/02 16:57:55;;;;;;;5.35;2.67;;;27.00;55.50;;;;;;5055559;28;20025;-72
2022/06/02 17:01:00;;;;;;;2.33;2.00;;;26.90;55.00;;;;;;5047716;28;20029;-72
2022/06/02 17:03:48;;;;;;;4.63;1.27;;;26.60;56.40;;;;;;5053374;28;20482;-73
2022/06/02 17:06:33;;;;;;;7.75;4.75;;;26.20;56.80;;;;;;5049753;28;20120;-72
2022/06/02 17:09:40;;;;;;;3.47;1.50;;;25.80;56.70;;;;;;5056097;28;20033;-72
2022/06/02 17:12:34;;;;;;;1.92;1.40;;;25.40;57.80;;;;;;5056394;28;20022;-72
2022/06/02 17:15:12;;;;;;;3.15;1.83;;;24.90;58.70;;;;;;5055357;28;20041;-72
2022/06/02 17:17:44;;;;;;;3.22;1.40;;;24.60;59.70;;;;;;5056294;28;20033;-72
2022/06/02 17:20:44;;;;;;;4.82;2.28;;;24.30;60.70;;;;;;5056362;28;20029;-74
2022/06/02 17:23:43;;;;;;;2.95;2.55;;;24.10;60.20;;;;;;5055282;28;20037;-72
2022/06/02 17:26:47;;;;;;;3.30;1.50;;;24.20;61.20;;;;;;5056089;28;20044;-72
2022/06/02 17:29:44;;;;;;;2.60;1.60;;;24.00;61.40;;;;;;5055771;28;20128;-72
2022/06/02 17:32:21;;;;;;;6.40;1.70;;;24.00;62.30;;;;;;5055856;28;20030;-72
2022/06/02 17:35:21;;;;;;;4.30;1.90;;;24.00;62.10;;;;;;5054247;28;20084;-72
2022/06/02 17:38:11;;;;;;;1.90;1.63;;;23.90;61.60;;;;;;5056090;28;20044;-71
2022/06/02 17:41:10;;;;;;;2.97;1.60;;;23.80;61.80;;;;;;5056565;28;20033;-72
2022/06/02 17:44:04;;;;;;;2.97;1.40;;;23.70;62.70;;;;;;5055834;28;20030;-72
2022/06/02 17:46:55;;;;;;;3.90;1.33;;;23.50;65.10;;;;;;5056038;28;20033;-72
2022/06/02 17:49:35;;;;;;;3.42;1.40;;;23.20;64.20;;;;;;5038349;28;20150;-72
2022/06/02 17:52:30;;;;;;;1.50;1.40;;;23.00;65.50;;;;;;5056070;28;20088;-72
2022/06/02 17:55:14;;;;;;;4.85;1.83;;;23.00;65.00;;;;;;5055586;28;20033;-72
2022/06/02 17:58:07;;;;;;;3.60;2.40;;;23.00;64.10;;;;;;5054569;28;20026;-72
2022/06/02 18:00:45;;;;;;;3.92;1.90;;;23.00;65.30;;;;;;5057319;28;20060;-72
2022/06/02 18:03:34;;;;;;;2.55;1.50;;;22.90;65.70;;;;;;5055247;28;20083;-72
2022/06/02 18:06:25;;;;;;;2.70;1.50;;;22.60;67.30;;;;;;5055839;28;20033;-72
2022/06/02 18:09:06;;;;;;;2.80;1.40;;;22.30;66.60;;;;;;5055531;28;20411;-72
2022/06/02 18:12:00;;;;;;;7.00;1.55;;;22.00;68.30;;;;;;5055177;28;20041;-72
2022/06/02 18:14:28;;;;;;;5.53;1.67;;;21.90;68.30;;;;;;5058344;28;20041;-74
2022/06/02 18:17:19;;;;;;;3.15;1.60;;;21.70;68.30;;;;;;5075760;28;20133;-71
2022/06/02 18:20:06;;;;;;;2.40;1.55;;;21.60;71.00;;;;;;5063905;28;20065;-71
2022/06/02 18:22:42;;;;;;;2.25;1.50;;;21.50;69.50;;;;;;5055677;28;20103;-71
2022/06/02 18:25:17;;;;;;;1.85;1.52;;;21.30;70.30;;;;;;5056458;28;20026;-71
2022/06/02 18:28:19;;;;;;;2.95;1.52;;;21.20;70.70;;;;;;5055561;28;20030;-71
2022/06/02 18:31:25;;;;;;;6.55;1.58;;;21.10;70.00;;;;;;5055577;28;20037;-71
2022/06/02 18:34:32;;;;;;;1.83;1.40;;;21.00;70.90;;;;;;5054684;28;20525;-70
2022/06/02 18:37:11;;;;;;;3.03;1.73;;;20.90;73.60;;;;;;5053339;28;20045;-71
2022/06/02 18:39:55;;;;;;;2.47;1.40;;;20.70;73.10;;;;;;5055308;28;20498;-73
2022/06/02 18:42:45;;;;;;;4.22;1.60;;;20.50;73.90;;;;;;5055292;28;20161;-72
2022/06/02 18:45:35;;;;;;;4.57;1.98;;;20.40;75.20;;;;;;5055921;28;20057;-73